Latest Weather Observations for Mareeba

IDQ60801

Issued at 6:32 pm EST Monday 3 August 2015 (issued every 30 minutes, with the page automatically refreshed every 10 minutes)

About weather observations | Map of weather stations | Latest weather observations for QLD | Other Formats
Station Details ID: 031210 Name: MAREEBA AIRPORT Lat: -17.07 Lon: 145.43 Height: 471.93 m
Data from the previous 72 hours. | See also: Recent months at Mareeba
Date/Time
EST
Temp
°C
App
Temp
°C
Dew
Point
Rel
Hum
%
Delta-T
°C
Wind Press
QNH
hPa
Press
MSL
hPa
Rain
since 9 am
mm
Dir
 
Spd
km/h
Gust
km/h
Spd
kts
Gust
kts
03/06:30pm 20.5 20.4 12.0 58 4.8 E 4 9 2 5 1018.2 - 0.0
03/06:00pm 21.7 20.9 11.1 51 6.0 NE 6 11 3 6 1018.0 1016.1 0.0
03/05:30pm 24.1 21.2 9.7 40 8.0 ESE 15 19 8 10 1017.9 - 0.0
03/05:00pm 24.5 21.3 8.5 36 8.8 SE 15 20 8 11 1017.9 - 0.0
03/04:30pm 25.0 22.7 8.9 36 8.9 E 11 17 6 9 1017.7 - 0.0
03/04:00pm 25.9 23.7 8.0 32 9.8 ESE 9 20 5 11 1017.3 - 0.0
03/03:30pm 26.3 24.2 8.3 32 9.9 SE 9 26 5 14 1017.4 - 0.0
03/03:00pm 26.1 23.0 7.2 30 10.2 SSE 13 30 7 16 1017.4 1015.6 0.0
03/02:30pm 25.8 23.6 6.4 29 10.3 S 7 13 4 7 1017.8 - 0.0
03/02:00pm 25.8 23.1 7.4 31 10.0 SE 11 20 6 11 1018.0 - 0.0
03/01:30pm 25.6 21.8 5.8 28 10.4 S 15 22 8 12 1018.2 - 0.0
03/01:00pm 25.6 22.4 5.2 27 10.6 SSE 11 20 6 11 1018.8 - 0.0
03/12:30pm 24.9 22.1 7.1 32 9.5 NE 11 17 6 9 1019.3 - 0.0
03/12:00pm 24.7 21.6 7.4 33 9.3 E 13 24 7 13 1019.7 1017.9 0.0
03/11:30am 24.3 19.7 5.6 30 9.7 SE 19 26 10 14 1020.2 - 0.0
03/11:00am 23.5 21.5 10.2 43 7.5 NNE 11 20 6 11 1020.6 - 0.0
03/10:30am 22.4 20.7 11.2 49 6.4 ENE 11 19 6 10 1020.9 - 0.0
03/10:00am 22.2 19.5 11.6 51 6.1 ESE 17 22 9 12 1020.9 - 0.0
03/09:30am 20.8 19.5 12.5 59 4.8 SE 11 19 6 10 1021.2 - 0.0
03/09:00am 20.0 19.1 13.7 67 3.7 SSE 11 15 6 8 1021.1 1019.3 0.0
03/08:30am 18.2 16.9 13.7 75 2.6 SSE 13 17 7 9 1020.9 - 0.0
03/08:00am 17.4 15.9 14.1 81 1.9 SSE 15 22 8 12 1020.4 - 0.0
03/07:30am 15.8 14.2 13.8 88 1.2 SSE 15 20 8 11 1020.1 - 0.0
03/07:00am 14.8 13.4 13.3 91 0.9 SSE 13 17 7 9 1019.9 - 0.0
03/06:30am 14.5 12.9 12.9 90 0.9 SSE 13 19 7 10 1019.7 - 0.0
03/06:00am 14.6 12.2 12.8 89 1.0 SSE 17 20 9 11 1019.4 1017.6 0.0
03/05:30am 14.8 12.6 13.2 90 0.9 SSE 17 20 9 11 1019.4 - 0.0
03/05:00am 14.4 12.3 12.4 88 1.1 SSE 15 20 8 11 1019.2 - 0.0
03/04:30am 15.0 12.3 12.9 87 1.2 SSE 19 24 10 13 1019.0 - 0.0
03/04:00am 15.5 12.9 13.3 87 1.3 SSE 19 26 10 14 1019.0 - 0.0
03/03:30am 15.0 13.1 13.0 88 1.1 SSE 15 19 8 10 1019.1 - 0.0
03/03:00am 15.2 13.0 13.2 88 1.1 SSE 17 22 9 12 1019.2 1017.4 0.0
03/02:30am 15.3 13.6 13.5 89 1.0 SSE 15 20 8 11 1019.3 - 0.0
03/02:00am 15.2 13.8 13.4 89 1.0 SSE 13 17 7 9 1019.6 - 0.0
03/01:30am 15.1 14.1 13.3 89 1.0 SSE 11 19 6 10 1020.0 - 0.0
03/01:00am 15.3 13.8 13.1 87 1.2 SSE 13 15 7 8 1020.2 - 0.0
03/12:30am 15.6 14.2 13.3 86 1.3 SSE 13 17 7 9 1020.4 - 0.0
03/12:00am 16.1 14.0 13.6 85 1.4 S 17 22 9 12 1020.7 1018.8 0.0
 
Date/Time
EST
Temp
°C
App
Temp
°C
Dew
Point
Rel
Hum
%
Delta-T
°C
Wind Press
QNH
hPa
Press
MSL
hPa
Rain
since 9 am
mm
Dir
 
Spd
km/h
Gust
km/h
Spd
kts
Gust
kts
02/11:30pm 16.3 14.7 13.8 85 1.4 SSE 15 24 8 13 1020.8 - 0.0
02/11:00pm 16.4 14.3 13.7 84 1.6 SSE 17 20 9 11 1020.8 - 0.0
02/10:30pm 16.4 14.7 13.5 83 1.7 SSE 15 17 8 9 1020.9 - 0.0
02/10:00pm 16.9 14.5 13.8 82 1.8 SSE 19 22 10 12 1020.8 - 0.0
02/09:30pm 17.2 14.9 14.1 82 1.8 SE 19 24 10 13 1020.9 - 0.0
02/09:00pm 17.4 15.1 14.1 81 1.9 SE 19 26 10 14 1020.8 1018.9 0.0
02/08:30pm 17.6 15.7 14.1 80 2.0 SE 17 22 9 12 1020.6 - 0.0
02/08:00pm 17.9 16.4 14.2 79 2.2 SE 15 19 8 10 1020.3 - 0.0
02/07:30pm 18.5 16.5 14.0 75 2.6 SE 17 26 9 14 1020.0 - 0.0
02/07:00pm 18.7 17.8 13.6 72 3.0 SSE 11 17 6 9 1019.7 - 0.0
02/06:30pm 19.1 18.1 12.4 65 3.8 SE 9 13 5 7 1019.4 - 0.0
02/06:00pm 21.1 20.2 12.5 58 5.0 E 9 13 5 7 1019.3 1017.5 0.0
02/05:30pm 22.4 20.8 12.9 55 5.6 ESE 13 20 7 11 1019.3 - 0.0
02/05:00pm 23.2 21.6 12.8 52 6.1 E 13 19 7 10 1018.9 - 0.0
02/04:30pm 23.0 21.3 11.1 47 6.8 E 11 15 6 8 1018.7 - 0.0
02/04:00pm 23.7 20.8 11.1 45 7.2 ESE 17 26 9 14 1018.7 - 0.0
02/03:30pm 24.1 20.7 10.4 42 7.7 SE 19 26 10 14 1018.8 - 0.0
02/03:00pm 24.2 22.4 10.8 43 7.6 E 11 19 6 10 1019.1 1017.2 0.0
02/02:30pm 24.6 22.5 11.2 43 7.7 E 13 22 7 12 1019.3 - 0.0
02/02:00pm 24.2 21.2 11.9 46 7.1 E 19 26 10 14 1019.6 - 0.0
02/01:30pm 24.0 21.2 11.3 45 7.3 SE 17 24 9 13 1019.9 - 0.0
02/01:00pm 23.7 20.5 12.0 48 6.8 ESE 20 26 11 14 1020.4 - 0.0
02/12:30pm 24.4 21.2 11.4 44 7.5 ESE 19 26 10 14 1020.8 - 0.0
02/12:00pm 23.6 21.0 12.0 48 6.7 SE 17 24 9 13 1021.2 1019.4 0.0
02/11:30am 23.5 20.8 13.4 53 6.0 SE 20 28 11 15 1021.4 - 0.0
02/11:00am 22.1 19.9 13.2 57 5.2 ENE 17 24 9 13 1021.7 - 0.0
02/10:30am 21.9 19.9 13.8 60 4.8 ESE 17 26 9 14 1022.1 - 0.0
02/10:00am 21.1 19.4 13.5 62 4.5 ESE 15 24 8 13 1022.3 - 0.0
02/09:30am 20.9 19.3 13.8 64 4.2 E 15 24 8 13 1022.5 - 0.0
02/09:00am 20.6 19.5 13.1 62 4.4 E 11 17 6 9 1022.2 1020.3 0.0
02/08:30am 20.2 18.6 12.9 63 4.2 E 13 20 7 11 1021.5 - 0.0
02/08:00am 18.9 17.5 13.3 70 3.2 ESE 13 19 7 10 1021.3 - 0.0
02/07:30am 17.9 16.8 14.2 79 2.2 SSE 13 17 7 9 1021.1 - 0.0
02/07:00am 17.3 16.2 14.2 82 1.8 SSE 13 19 7 10 1020.8 - 0.0
02/06:30am 16.2 15.1 14.2 88 1.2 SSE 13 15 7 8 1020.3 - 0.0
02/06:00am 13.7 13.9 11.7 88 1.1 S 2 11 1 6 1020.1 1018.2 0.0
02/05:30am 14.5 15.2 12.2 86 1.3 CALM 0 0 0 0 1020.0 - 0.0
02/05:00am 15.9 17.0 13.6 86 1.3 CALM 0 0 0 0 1019.5 - 0.0
02/04:30am 15.8 16.9 13.5 86 1.3 CALM 0 4 0 2 1019.4 - 0.0
02/04:00am 15.4 16.5 13.4 88 1.1 CALM 0 0 0 0 1019.4 - 0.0
02/03:30am 14.9 15.8 12.9 88 1.1 CALM 0 0 0 0 1019.5 - 0.0
02/03:00am 15.1 14.7 13.1 88 1.1 ENE 7 9 4 5 1019.5 1017.7 0.0
02/02:30am 14.2 14.8 11.9 86 1.3 CALM 0 6 0 3 1019.6 - 0.0
02/02:00am 14.9 15.7 12.6 86 1.3 CALM 0 6 0 3 1019.9 - 0.0
02/01:30am 15.0 15.5 12.7 86 1.3 SE 2 7 1 4 1020.0 - 0.0
02/01:00am 15.2 14.8 12.3 83 1.6 S 6 9 3 5 1020.1 - 0.0
02/12:30am 16.2 15.5 13.1 82 1.8 SSE 9 13 5 7 1020.2 - 0.0
02/12:00am 16.6 14.8 13.3 81 1.9 SE 15 20 8 11 1020.2 1018.3 0.0
 
Date/Time
EST
Temp
°C
App
Temp
°C
Dew
Point
Rel
Hum
%
Delta-T
°C
Wind Press
QNH
hPa
Press
MSL
hPa
Rain
since 9 am
mm
Dir
 
Spd
km/h
Gust
km/h
Spd
kts
Gust
kts
01/11:30pm 16.2 15.2 13.5 84 1.6 SSE 11 17 6 9 1020.3 - 0.0
01/11:00pm 15.7 14.6 13.2 85 1.4 S 11 15 6 8 1020.4 - 0.0
01/10:30pm 16.2 15.2 13.3 83 1.7 SSE 11 15 6 8 1020.5 - 0.0
01/10:00pm 16.4 15.0 13.5 83 1.7 SSE 13 20 7 11 1020.6 - 0.0
01/09:30pm 16.1 15.4 13.2 83 1.7 SE 9 15 5 8 1020.5 - 0.0
01/09:00pm 16.7 16.4 13.4 81 1.9 SE 7 11 4 6 1020.5 1018.6 0.0
01/08:30pm 16.9 15.8 13.2 79 2.1 SE 11 19 6 10 1020.4 - 0.0
01/08:00pm 17.3 15.1 13.4 78 2.2 SE 17 24 9 13 1020.0 - 0.0
01/07:30pm 17.7 15.5 13.2 75 2.6 SSE 17 22 9 12 1019.6 - 0.0
01/07:00pm 18.5 15.7 13.1 71 3.1 SE 20 28 11 15 1019.2 - 0.0
01/06:30pm 19.3 16.6 12.8 66 3.7 SSE 19 24 10 13 1018.8 - 0.0
01/06:00pm 20.1 18.1 12.6 62 4.3 SE 15 20 8 11 1018.7 1016.8 0.0
01/05:30pm 21.6 18.3 11.6 53 5.7 SE 20 26 11 14 1018.5 - 0.0
01/05:00pm 23.0 19.6 11.4 48 6.6 ESE 20 26 11 14 1018.3 - 0.0
01/04:30pm 24.0 20.8 12.0 47 7.0 ESE 20 24 11 13 1018.2 - 0.0
01/04:00pm 24.0 20.9 11.7 46 7.1 ESE 19 28 10 15 1017.9 - 0.0
01/03:30pm 24.9 21.6 12.8 47 7.1 SSE 22 30 12 16 1017.8 - 0.0
01/03:00pm 25.0 21.5 12.2 44 7.5 SSE 22 32 12 17 1017.7 1015.8 0.0
01/02:30pm 24.1 20.4 11.4 45 7.3 SE 22 30 12 16 1018.0 - 0.0
01/02:00pm 24.7 21.9 12.6 47 7.1 S 19 26 10 14 1018.3 - 0.0
01/01:30pm 24.6 21.5 12.2 46 7.2 SSE 20 35 11 19 1018.8 - 0.0
01/01:00pm 24.2 21.1 12.2 47 7.0 ESE 20 32 11 17 1019.2 - 0.0
01/12:30pm 24.8 21.8 12.4 46 7.3 ESE 20 32 11 17 1019.9 - 0.0
01/12:00pm 23.6 20.0 12.0 48 6.7 E 22 37 12 20 1020.4 1018.5 0.0
01/11:30am 23.8 19.7 11.5 46 7.1 ESE 24 35 13 19 1020.6 - 0.0
01/11:00am 23.6 19.0 12.3 49 6.6 SE 28 35 15 19 1020.9 - 0.0
01/10:30am 22.8 18.2 11.2 48 6.6 ESE 26 35 14 19 1021.4 - 0.0
01/10:00am 22.2 18.7 12.2 53 5.8 ESE 22 32 12 17 1021.5 - 0.0
01/09:30am 20.8 18.9 13.0 61 4.5 ESE 15 22 8 12 1021.6 - 0.0
01/09:00am 19.4 17.1 12.9 66 3.7 ESE 17 24 9 13 1021.5 1019.7 0.0
01/08:30am 18.7 17.4 12.5 67 3.5 ESE 11 15 6 8 1021.3 - 0.0
01/08:00am 18.6 17.8 12.8 69 3.3 ESE 9 17 5 9 1021.0 - 0.0
01/07:30am 17.1 18.3 13.8 81 1.9 CALM 0 0 0 0 1020.8 - 0.0
01/07:00am 15.9 16.9 13.2 84 1.5 CALM 0 7 0 4 1020.6 - 0.0
01/06:30am 15.6 16.6 13.1 85 1.4 CALM 0 0 0 0 1020.3 - 0.0
01/06:00am 16.0 16.1 13.8 87 1.3 ESE 6 11 3 6 1020.0 1018.1 0.0
01/05:30am 15.8 15.6 13.6 87 1.3 SE 7 9 4 5 1019.6 - 0.0
01/05:00am 16.7 18.0 14.0 84 1.6 CALM 0 0 0 0 1019.4 - 0.0
01/04:30am 17.0 15.6 13.3 79 2.1 E 13 20 7 11 1019.1 - 0.0
01/04:00am 16.4 16.6 14.2 87 1.3 ESE 6 15 3 8 1018.9 - 0.0
01/03:30am 14.6 15.2 11.9 84 1.5 CALM 0 6 0 3 1018.7 - 0.0
01/03:00am 15.2 14.3 12.7 85 1.4 SSE 9 11 5 6 1018.9 1017.0 0.0
01/02:30am 15.0 14.0 12.3 84 1.5 SSE 9 15 5 8 1019.3 - 0.0
01/02:00am 15.3 14.8 12.6 84 1.5 S 7 11 4 6 1019.6 - 0.0
01/01:30am 14.6 13.9 12.1 85 1.4 SSE 7 9 4 5 1019.7 - 0.0
01/01:00am 15.2 13.8 12.1 82 1.7 S 11 13 6 7 1020.1 - 0.0
01/12:30am 15.9 14.6 12.5 80 1.9 SSE 11 15 6 8 1020.2 - 0.0
01/12:00am 16.3 15.1 12.8 80 2.0 SE 11 19 6 10 1020.3 1018.4 0.0
 
Date/Time
EST
Temp
°C
App
Temp
°C
Dew
Point
Rel
Hum
%
Delta-T
°C
Wind Press
QNH
hPa
Press
MSL
hPa
Rain
since 9 am
mm
Dir
 
Spd
km/h
Gust
km/h
Spd
kts
Gust
kts
31/11:30pm 15.9 14.8 12.1 78 2.1 ESE 9 13 5 7 1020.5 - 0.0
31/11:00pm 15.7 14.6 12.1 79 2.0 SE 9 13 5 7 1020.5 - 0.0
31/10:30pm 16.7 14.7 12.7 77 2.3 SE 15 19 8 10 1020.4 - 0.0
31/10:00pm 16.5 14.9 12.7 78 2.2 SE 13 19 7 10 1020.3 - 0.0
31/09:30pm 16.4 15.1 12.4 77 2.3 ESE 11 17 6 9 1020.3 - 0.0
31/09:00pm 17.2 15.2 12.7 75 2.6 ESE 15 20 8 11 1020.3 1018.7 0.0
31/08:30pm 17.1 15.0 12.4 74 2.7 ESE 15 19 8 10 1020.1 - 0.0
31/08:00pm 17.4 15.8 12.7 74 2.7 ESE 13 20 7 11 1020.0 - 0.0
31/07:30pm 17.3 16.1 12.8 75 2.6 SE 11 17 6 9 1019.6 - 0.0
31/07:00pm 17.6 16.4 12.7 73 2.8 SSE 11 19 6 10 1019.3 - 0.0

Other Formats:

Comma delimited format used in spreadsheet applications
http://www.bom.gov.au/fwo/IDQ60801/IDQ60801.95286.axf

JavaScript Object Notation format (JSON) in row-major order
http://www.bom.gov.au/fwo/IDQ60801/IDQ60801.95286.json